sensor_id;sensor_type;location;lat;lon;timestamp;temperature;humidity
38788;DHT22;24536;45.488;12.238;2022-12-26T00:01:57;12.50;92.50
38788;DHT22;24536;45.488;12.238;2022-12-26T00:04:24;12.50;92.80
38788;DHT22;24536;45.488;12.238;2022-12-26T00:06:50;12.50;92.70
38788;DHT22;24536;45.488;12.238;2022-12-26T00:09:16;12.50;92.90
38788;DHT22;24536;45.488;12.238;2022-12-26T00:11:42;12.50;92.90
38788;DHT22;24536;45.488;12.238;2022-12-26T00:14:11;12.50;92.90
38788;DHT22;24536;45.488;12.238;2022-12-26T00:16:40;12.40;92.90
38788;DHT22;24536;45.488;12.238;2022-12-26T00:19:06;12.40;92.80
38788;DHT22;24536;45.488;12.238;2022-12-26T00:21:31;12.50;93.00
38788;DHT22;24536;45.488;12.238;2022-12-26T00:23:58;12.40;93.00
38788;DHT22;24536;45.488;12.238;2022-12-26T00:26:26;12.40;93.00
38788;DHT22;24536;45.488;12.238;2022-12-26T00:28:53;12.50;93.00
38788;DHT22;24536;45.488;12.238;2022-12-26T00:31:21;12.50;93.00
38788;DHT22;24536;45.488;12.238;2022-12-26T00:33:48;12.50;93.00
38788;DHT22;24536;45.488;12.238;2022-12-26T00:36:17;12.50;93.00
38788;DHT22;24536;45.488;12.238;2022-12-26T00:38:44;12.50;93.00
38788;DHT22;24536;45.488;12.238;2022-12-26T00:41:11;12.50;93.00
38788;DHT22;24536;45.488;12.238;2022-12-26T00:43:37;12.50;93.00
38788;DHT22;24536;45.488;12.238;2022-12-26T00:46:03;12.50;93.00
38788;DHT22;24536;45.488;12.238;2022-12-26T00:48:29;12.50;93.10
38788;DHT22;24536;45.488;12.238;2022-12-26T00:50:56;12.40;93.10
38788;DHT22;24536;45.488;12.238;2022-12-26T00:53:23;12.40;93.00
38788;DHT22;24536;45.488;12.238;2022-12-26T00:55:50;12.50;93.20
38788;DHT22;24536;45.488;12.238;2022-12-26T00:58:17;12.50;93.20
38788;DHT22;24536;45.488;12.238;2022-12-26T01:00:43;12.50;93.20
38788;DHT22;24536;45.488;12.238;2022-12-26T01:03:10;12.50;93.20
38788;DHT22;24536;45.488;12.238;2022-12-26T01:05:43;12.60;93.20
38788;DHT22;24536;45.488;12.238;2022-12-26T01:08:10;12.60;93.20
38788;DHT22;24536;45.488;12.238;2022-12-26T01:10:37;12.60;93.20
38788;DHT22;24536;45.488;12.238;2022-12-26T01:13:04;12.60;93.20
38788;DHT22;24536;45.488;12.238;2022-12-26T01:15:30;12.60;93.30
38788;DHT22;24536;45.488;12.238;2022-12-26T01:17:57;12.60;93.30
38788;DHT22;24536;45.488;12.238;2022-12-26T01:20:24;12.60;93.30
38788;DHT22;24536;45.488;12.238;2022-12-26T01:22:50;12.60;93.10
38788;DHT22;24536;45.488;12.238;2022-12-26T01:25:15;12.60;93.30
38788;DHT22;24536;45.488;12.238;2022-12-26T01:27:41;12.60;93.30
38788;DHT22;24536;45.488;12.238;2022-12-26T01:30:07;12.60;93.30
38788;DHT22;24536;45.488;12.238;2022-12-26T01:32:33;12.60;93.40
38788;DHT22;24536;45.488;12.238;2022-12-26T01:34:59;12.60;93.40
38788;DHT22;24536;45.488;12.238;2022-12-26T01:37:24;12.60;93.40
38788;DHT22;24536;45.488;12.238;2022-12-26T01:39:51;12.60;93.40
38788;DHT22;24536;45.488;12.238;2022-12-26T01:42:22;12.60;93.40
38788;DHT22;24536;45.488;12.238;2022-12-26T01:47:36;12.60;93.50
38788;DHT22;24536;45.488;12.238;2022-12-26T01:50:04;12.60;93.60
38788;DHT22;24536;45.488;12.238;2022-12-26T01:52:38;12.60;93.60
38788;DHT22;24536;45.488;12.238;2022-12-26T01:55:08;12.60;93.60
38788;DHT22;24536;45.488;12.238;2022-12-26T01:57:39;12.60;93.60
38788;DHT22;24536;45.488;12.238;2022-12-26T02:00:07;12.50;93.60
38788;DHT22;24536;45.488;12.238;2022-12-26T02:02:33;12.50;93.60
38788;DHT22;24536;45.488;12.238;2022-12-26T02:05:19;12.50;93.60
38788;DHT22;24536;45.488;12.238;2022-12-26T02:08:07;12.50;93.60
38788;DHT22;24536;45.488;12.238;2022-12-26T02:11:27;12.50;93.60
38788;DHT22;24536;45.488;12.238;2022-12-26T02:13:45;12.50;93.60
38788;DHT22;24536;45.488;12.238;2022-12-26T02:16:13;12.50;93.60
38788;DHT22;24536;45.488;12.238;2022-12-26T02:24:14;12.40;93.60
38788;DHT22;24536;45.488;12.238;2022-12-26T02:37:35;12.30;93.70
38788;DHT22;24536;45.488;12.238;2022-12-26T02:42:56;12.30;93.70
38788;DHT22;24536;45.488;12.238;2022-12-26T02:49:02;12.30;93.70
38788;DHT22;24536;45.488;12.238;2022-12-26T02:52:04;12.30;93.80
38788;DHT22;24536;45.488;12.238;2022-12-26T02:55:10;12.30;93.80
38788;DHT22;24536;45.488;12.238;2022-12-26T02:58:04;12.30;93.80
38788;DHT22;24536;45.488;12.238;2022-12-26T03:00:59;12.30;93.80
38788;DHT22;24536;45.488;12.238;2022-12-26T03:03:46;12.30;93.80
38788;DHT22;24536;45.488;12.238;2022-12-26T03:06:33;12.30;93.80
38788;DHT22;24536;45.488;12.238;2022-12-26T03:09:23;12.40;93.80
38788;DHT22;24536;45.488;12.238;2022-12-26T03:15:24;12.40;93.60
38788;DHT22;24536;45.488;12.238;2022-12-26T03:17:59;12.40;93.60
38788;DHT22;24536;45.488;12.238;2022-12-26T03:20:29;12.40;93.50
38788;DHT22;24536;45.488;12.238;2022-12-26T03:25:36;12.30;93.50
38788;DHT22;24536;45.488;12.238;2022-12-26T03:28:23;12.30;93.50
38788;DHT22;24536;45.488;12.238;2022-12-26T03:30:49;12.30;93.50
38788;DHT22;24536;45.488;12.238;2022-12-26T03:33:39;12.30;93.40
38788;DHT22;24536;45.488;12.238;2022-12-26T03:41:58;12.30;93.30
38788;DHT22;24536;45.488;12.238;2022-12-26T03:45:07;12.30;93.30
38788;DHT22;24536;45.488;12.238;2022-12-26T03:48:25;12.30;93.30
38788;DHT22;24536;45.488;12.238;2022-12-26T03:51:19;12.30;93.30
38788;DHT22;24536;45.488;12.238;2022-12-26T03:54:13;12.30;93.30
38788;DHT22;24536;45.488;12.238;2022-12-26T03:57:04;12.30;93.30
38788;DHT22;24536;45.488;12.238;2022-12-26T04:00:07;12.30;93.30
38788;DHT22;24536;45.488;12.238;2022-12-26T04:02:52;12.30;93.30
38788;DHT22;24536;45.488;12.238;2022-12-26T04:05:44;12.20;93.30
38788;DHT22;24536;45.488;12.238;2022-12-26T04:11:26;12.20;93.20
38788;DHT22;24536;45.488;12.238;2022-12-26T04:23:39;12.20;93.40
38788;DHT22;24536;45.488;12.238;2022-12-26T04:29:13;12.10;93.40
38788;DHT22;24536;45.488;12.238;2022-12-26T04:32:15;12.10;93.50
38788;DHT22;24536;45.488;12.238;2022-12-26T04:35:05;12.10;93.40
38788;DHT22;24536;45.488;12.238;2022-12-26T04:37:51;12.10;93.40
38788;DHT22;24536;45.488;12.238;2022-12-26T04:40:42;12.10;93.50
38788;DHT22;24536;45.488;12.238;2022-12-26T04:43:28;12.10;93.40
38788;DHT22;24536;45.488;12.238;2022-12-26T04:46:14;12.00;93.50
38788;DHT22;24536;45.488;12.238;2022-12-26T04:48:42;12.00;93.50
38788;DHT22;24536;45.488;12.238;2022-12-26T04:51:28;11.90;93.40
38788;DHT22;24536;45.488;12.238;2022-12-26T04:54:00;11.90;93.60
38788;DHT22;24536;45.488;12.238;2022-12-26T04:56:25;11.90;93.60
38788;DHT22;24536;45.488;12.238;2022-12-26T04:58:51;11.90;93.70
38788;DHT22;24536;45.488;12.238;2022-12-26T05:01:17;11.90;93.70
38788;DHT22;24536;45.488;12.238;2022-12-26T05:04:01;11.90;93.70
38788;DHT22;24536;45.488;12.238;2022-12-26T05:06:45;11.90;93.60
38788;DHT22;24536;45.488;12.238;2022-12-26T05:09:29;11.90;93.60
38788;DHT22;24536;45.488;12.238;2022-12-26T05:11:58;11.90;93.60
38788;DHT22;24536;45.488;12.238;2022-12-26T05:14:24;11.90;93.90
38788;DHT22;24536;45.488;12.238;2022-12-26T05:16:50;11.90;93.60
38788;DHT22;24536;45.488;12.238;2022-12-26T05:19:34;11.90;93.60
38788;DHT22;24536;45.488;12.238;2022-12-26T05:22:19;11.90;93.70
38788;DHT22;24536;45.488;12.238;2022-12-26T05:25:08;11.80;93.70
38788;DHT22;24536;45.488;12.238;2022-12-26T05:27:53;11.90;93.80
38788;DHT22;24536;45.488;12.238;2022-12-26T05:30:37;11.80;93.70
38788;DHT22;24536;45.488;12.238;2022-12-26T05:33:03;11.80;93.70
38788;DHT22;24536;45.488;12.238;2022-12-26T05:35:47;11.80;93.70
38788;DHT22;24536;45.488;12.238;2022-12-26T05:38:13;11.80;93.70
38788;DHT22;24536;45.488;12.238;2022-12-26T05:40:39;11.80;93.60
38788;DHT22;24536;45.488;12.238;2022-12-26T05:43:04;11.80;93.70
38788;DHT22;24536;45.488;12.238;2022-12-26T05:45:30;11.80;93.70
38788;DHT22;24536;45.488;12.238;2022-12-26T05:47:59;11.80;93.70
38788;DHT22;24536;45.488;12.238;2022-12-26T05:50:26;11.70;93.60
38788;DHT22;24536;45.488;12.238;2022-12-26T05:52:51;11.70;93.80
38788;DHT22;24536;45.488;12.238;2022-12-26T05:57:44;11.70;93.60
38788;DHT22;24536;45.488;12.238;2022-12-26T06:00:10;11.70;93.80
38788;DHT22;24536;45.488;12.238;2022-12-26T06:02:36;11.60;93.80
38788;DHT22;24536;45.488;12.238;2022-12-26T06:05:02;11.60;93.80
38788;DHT22;24536;45.488;12.238;2022-12-26T06:07:27;11.60;93.90
38788;DHT22;24536;45.488;12.238;2022-12-26T06:09:53;11.50;93.90
38788;DHT22;24536;45.488;12.238;2022-12-26T06:12:19;11.50;94.00
38788;DHT22;24536;45.488;12.238;2022-12-26T06:14:44;11.40;94.00
38788;DHT22;24536;45.488;12.238;2022-12-26T06:17:10;11.50;94.10
38788;DHT22;24536;45.488;12.238;2022-12-26T06:19:36;11.50;94.10
38788;DHT22;24536;45.488;12.238;2022-12-26T06:22:01;11.40;94.10
38788;DHT22;24536;45.488;12.238;2022-12-26T06:24:27;11.30;94.20
38788;DHT22;24536;45.488;12.238;2022-12-26T06:26:53;11.30;94.00
38788;DHT22;24536;45.488;12.238;2022-12-26T06:29:18;11.30;94.20
38788;DHT22;24536;45.488;12.238;2022-12-26T06:31:44;11.30;94.20
38788;DHT22;24536;45.488;12.238;2022-12-26T06:34:10;11.30;94.20
38788;DHT22;24536;45.488;12.238;2022-12-26T06:36:36;11.30;94.30
38788;DHT22;24536;45.488;12.238;2022-12-26T06:39:11;11.30;94.30
38788;DHT22;24536;45.488;12.238;2022-12-26T06:41:42;11.30;94.30
38788;DHT22;24536;45.488;12.238;2022-12-26T06:44:09;11.30;94.20
38788;DHT22;24536;45.488;12.238;2022-12-26T06:46:35;11.30;94.40
38788;DHT22;24536;45.488;12.238;2022-12-26T06:49:00;11.40;94.40
38788;DHT22;24536;45.488;12.238;2022-12-26T06:51:26;11.40;94.40
38788;DHT22;24536;45.488;12.238;2022-12-26T06:53:53;11.40;94.30
38788;DHT22;24536;45.488;12.238;2022-12-26T06:56:22;11.50;94.40
38788;DHT22;24536;45.488;12.238;2022-12-26T07:01:20;11.60;94.00
38788;DHT22;24536;45.488;12.238;2022-12-26T07:03:47;11.50;94.10
38788;DHT22;24536;45.488;12.238;2022-12-26T07:06:36;11.50;94.30
38788;DHT22;24536;45.488;12.238;2022-12-26T07:09:08;11.60;94.20
38788;DHT22;24536;45.488;12.238;2022-12-26T07:11:37;11.60;94.10
38788;DHT22;24536;45.488;12.238;2022-12-26T07:14:03;11.60;93.90
38788;DHT22;24536;45.488;12.238;2022-12-26T07:16:30;11.60;93.90
38788;DHT22;24536;45.488;12.238;2022-12-26T07:18:57;11.60;93.90
38788;DHT22;24536;45.488;12.238;2022-12-26T07:21:24;11.60;93.80
38788;DHT22;24536;45.488;12.238;2022-12-26T07:23:51;11.60;93.80
38788;DHT22;24536;45.488;12.238;2022-12-26T07:26:18;11.70;93.80
38788;DHT22;24536;45.488;12.238;2022-12-26T07:28:44;11.70;93.80
38788;DHT22;24536;45.488;12.238;2022-12-26T07:31:18;11.70;93.80
38788;DHT22;24536;45.488;12.238;2022-12-26T07:33:47;11.70;93.80
38788;DHT22;24536;45.488;12.238;2022-12-26T07:36:13;11.70;93.80
38788;DHT22;24536;45.488;12.238;2022-12-26T07:38:39;11.70;93.70
38788;DHT22;24536;45.488;12.238;2022-12-26T07:41:05;11.70;93.80
38788;DHT22;24536;45.488;12.238;2022-12-26T07:43:49;11.70;93.80
38788;DHT22;24536;45.488;12.238;2022-12-26T07:46:15;11.70;93.60
38788;DHT22;24536;45.488;12.238;2022-12-26T07:48:41;11.70;93.80
38788;DHT22;24536;45.488;12.238;2022-12-26T07:51:08;11.70;93.80
38788;DHT22;24536;45.488;12.238;2022-12-26T07:53:34;11.70;93.80
38788;DHT22;24536;45.488;12.238;2022-12-26T07:56:01;11.70;93.90
38788;DHT22;24536;45.488;12.238;2022-12-26T07:58:27;11.80;93.80
38788;DHT22;24536;45.488;12.238;2022-12-26T08:00:52;11.80;93.70
38788;DHT22;24536;45.488;12.238;2022-12-26T08:03:20;11.70;93.90
38788;DHT22;24536;45.488;12.238;2022-12-26T08:05:47;11.70;93.60
38788;DHT22;24536;45.488;12.238;2022-12-26T08:08:14;11.70;93.70
38788;DHT22;24536;45.488;12.238;2022-12-26T08:10:40;11.60;93.70
38788;DHT22;24536;45.488;12.238;2022-12-26T08:13:06;11.70;93.60
38788;DHT22;24536;45.488;12.238;2022-12-26T08:15:39;11.60;93.80
38788;DHT22;24536;45.488;12.238;2022-12-26T08:18:06;11.60;93.80
38788;DHT22;24536;45.488;12.238;2022-12-26T08:20:32;11.60;93.70
38788;DHT22;24536;45.488;12.238;2022-12-26T08:22:57;11.60;93.80
38788;DHT22;24536;45.488;12.238;2022-12-26T08:25:23;11.60;93.80
38788;DHT22;24536;45.488;12.238;2022-12-26T08:27:49;11.70;93.80
38788;DHT22;24536;45.488;12.238;2022-12-26T08:30:14;11.70;93.80
38788;DHT22;24536;45.488;12.238;2022-12-26T08:32:40;11.70;93.50
38788;DHT22;24536;45.488;12.238;2022-12-26T08:35:07;11.70;93.70
38788;DHT22;24536;45.488;12.238;2022-12-26T08:37:34;11.60;93.70
38788;DHT22;24536;45.488;12.238;2022-12-26T08:40:00;11.70;93.80
38788;DHT22;24536;45.488;12.238;2022-12-26T08:42:25;11.50;93.70
38788;DHT22;24536;45.488;12.238;2022-12-26T08:44:51;11.40;93.80
38788;DHT22;24536;45.488;12.238;2022-12-26T08:47:17;11.50;94.20
38788;DHT22;24536;45.488;12.238;2022-12-26T08:49:42;11.50;94.00
38788;DHT22;24536;45.488;12.238;2022-12-26T08:52:08;11.60;93.90
38788;DHT22;24536;45.488;12.238;2022-12-26T08:54:34;11.60;94.00
38788;DHT22;24536;45.488;12.238;2022-12-26T08:57:00;11.70;94.00
38788;DHT22;24536;45.488;12.238;2022-12-26T08:59:25;11.80;93.90
38788;DHT22;24536;45.488;12.238;2022-12-26T09:01:52;11.80;93.90
38788;DHT22;24536;45.488;12.238;2022-12-26T09:06:44;11.90;93.60
38788;DHT22;24536;45.488;12.238;2022-12-26T09:09:11;11.90;93.70
38788;DHT22;24536;45.488;12.238;2022-12-26T09:14:04;12.10;93.50
38788;DHT22;24536;45.488;12.238;2022-12-26T09:16:34;12.10;93.60
38788;DHT22;24536;45.488;12.238;2022-12-26T09:19:04;12.20;93.60
38788;DHT22;24536;45.488;12.238;2022-12-26T09:21:30;12.20;93.50
38788;DHT22;24536;45.488;12.238;2022-12-26T09:24:23;12.30;93.20
38788;DHT22;24536;45.488;12.238;2022-12-26T09:26:48;12.30;93.30
38788;DHT22;24536;45.488;12.238;2022-12-26T09:29:14;12.40;93.30
38788;DHT22;24536;45.488;12.238;2022-12-26T09:31:40;12.40;93.20
38788;DHT22;24536;45.488;12.238;2022-12-26T09:34:06;12.40;93.10
38788;DHT22;24536;45.488;12.238;2022-12-26T09:36:35;12.50;93.10
38788;DHT22;24536;45.488;12.238;2022-12-26T09:39:03;12.50;93.10
38788;DHT22;24536;45.488;12.238;2022-12-26T09:44:27;12.50;93.20
38788;DHT22;24536;45.488;12.238;2022-12-26T09:47:04;12.60;92.90
38788;DHT22;24536;45.488;12.238;2022-12-26T09:49:46;12.60;93.10
38788;DHT22;24536;45.488;12.238;2022-12-26T09:52:18;12.60;93.00
38788;DHT22;24536;45.488;12.238;2022-12-26T09:54:50;12.70;93.00
38788;DHT22;24536;45.488;12.238;2022-12-26T09:57:36;12.70;93.00
38788;DHT22;24536;45.488;12.238;2022-12-26T10:00:05;12.80;92.90
38788;DHT22;24536;45.488;12.238;2022-12-26T10:02:31;12.80;92.90
38788;DHT22;24536;45.488;12.238;2022-12-26T10:04:59;12.80;92.80
38788;DHT22;24536;45.488;12.238;2022-12-26T10:07:41;12.90;92.90
38788;DHT22;24536;45.488;12.238;2022-12-26T10:10:30;12.80;92.80
38788;DHT22;24536;45.488;12.238;2022-12-26T10:16:07;12.90;92.80
38788;DHT22;24536;45.488;12.238;2022-12-26T10:19:08;13.00;92.50
38788;DHT22;24536;45.488;12.238;2022-12-26T10:21:48;13.00;92.70
38788;DHT22;24536;45.488;12.238;2022-12-26T10:24:24;12.90;92.60
38788;DHT22;24536;45.488;12.238;2022-12-26T10:26:55;13.00;92.60
38788;DHT22;24536;45.488;12.238;2022-12-26T10:29:37;13.00;92.60
38788;DHT22;24536;45.488;12.238;2022-12-26T10:32:17;13.10;92.40
38788;DHT22;24536;45.488;12.238;2022-12-26T10:34:46;13.00;92.60
38788;DHT22;24536;45.488;12.238;2022-12-26T10:42:37;13.20;92.40
38788;DHT22;24536;45.488;12.238;2022-12-26T10:45:39;13.20;92.30
38788;DHT22;24536;45.488;12.238;2022-12-26T10:48:11;13.20;92.30
38788;DHT22;24536;45.488;12.238;2022-12-26T10:50:38;13.20;92.30
38788;DHT22;24536;45.488;12.238;2022-12-26T10:53:09;13.30;92.40
38788;DHT22;24536;45.488;12.238;2022-12-26T10:55:36;13.30;92.70
38788;DHT22;24536;45.488;12.238;2022-12-26T10:58:08;13.40;92.60
38788;DHT22;24536;45.488;12.238;2022-12-26T11:00:38;13.40;92.50
38788;DHT22;24536;45.488;12.238;2022-12-26T11:03:08;13.50;92.40
38788;DHT22;24536;45.488;12.238;2022-12-26T11:05:51;13.50;92.30
38788;DHT22;24536;45.488;12.238;2022-12-26T11:08:18;13.60;92.30
38788;DHT22;24536;45.488;12.238;2022-12-26T11:11:21;13.50;92.10
38788;DHT22;24536;45.488;12.238;2022-12-26T11:13:56;13.50;92.10
38788;DHT22;24536;45.488;12.238;2022-12-26T11:16:37;13.60;92.00
38788;DHT22;24536;45.488;12.238;2022-12-26T11:19:04;13.50;92.00
38788;DHT22;24536;45.488;12.238;2022-12-26T11:21:31;13.50;92.00
38788;DHT22;24536;45.488;12.238;2022-12-26T11:24:16;13.50;92.00
38788;DHT22;24536;45.488;12.238;2022-12-26T11:26:43;13.50;92.00
38788;DHT22;24536;45.488;12.238;2022-12-26T11:29:22;13.50;92.00
38788;DHT22;24536;45.488;12.238;2022-12-26T11:31:57;13.60;92.10
38788;DHT22;24536;45.488;12.238;2022-12-26T11:34:29;13.60;92.00
38788;DHT22;24536;45.488;12.238;2022-12-26T11:36:59;13.60;91.90
38788;DHT22;24536;45.488;12.238;2022-12-26T11:39:32;13.60;91.80
38788;DHT22;24536;45.488;12.238;2022-12-26T11:41:58;13.60;91.80
38788;DHT22;24536;45.488;12.238;2022-12-26T11:44:30;13.60;91.70
38788;DHT22;24536;45.488;12.238;2022-12-26T11:47:13;13.60;91.60
38788;DHT22;24536;45.488;12.238;2022-12-26T11:49:47;13.50;91.80
38788;DHT22;24536;45.488;12.238;2022-12-26T11:52:35;13.50;91.80
38788;DHT22;24536;45.488;12.238;2022-12-26T12:01:05;13.60;91.50
38788;DHT22;24536;45.488;12.238;2022-12-26T12:25:25;13.50;91.80
38788;DHT22;24536;45.488;12.238;2022-12-26T12:38:31;13.50;91.80
38788;DHT22;24536;45.488;12.238;2022-12-26T12:43:39;13.60;92.00
38788;DHT22;24536;45.488;12.238;2022-12-26T12:46:26;13.60;92.00
38788;DHT22;24536;45.488;12.238;2022-12-26T12:49:08;13.60;92.00
38788;DHT22;24536;45.488;12.238;2022-12-26T13:00:11;13.50;92.10
38788;DHT22;24536;45.488;12.238;2022-12-26T13:02:42;13.50;92.20
38788;DHT22;24536;45.488;12.238;2022-12-26T13:05:28;13.40;92.20
38788;DHT22;24536;45.488;12.238;2022-12-26T13:08:05;13.50;92.30
38788;DHT22;24536;45.488;12.238;2022-12-26T13:10:34;13.50;92.30
38788;DHT22;24536;45.488;12.238;2022-12-26T13:16:14;13.50;92.30
38788;DHT22;24536;45.488;12.238;2022-12-26T13:18:54;13.40;92.30
38788;DHT22;24536;45.488;12.238;2022-12-26T13:21:21;13.40;92.30
38788;DHT22;24536;45.488;12.238;2022-12-26T13:23:58;13.40;92.40
38788;DHT22;24536;45.488;12.238;2022-12-26T13:31:57;13.40;92.40
38788;DHT22;24536;45.488;12.238;2022-12-26T13:34:23;13.40;92.50
38788;DHT22;24536;45.488;12.238;2022-12-26T13:36:52;13.40;92.50
38788;DHT22;24536;45.488;12.238;2022-12-26T13:39:40;13.40;92.60
38788;DHT22;24536;45.488;12.238;2022-12-26T13:44:52;13.40;92.60
38788;DHT22;24536;45.488;12.238;2022-12-26T13:47:36;13.40;92.60
38788;DHT22;24536;45.488;12.238;2022-12-26T13:55:53;13.40;92.60
38788;DHT22;24536;45.488;12.238;2022-12-26T14:01:19;13.30;92.60
38788;DHT22;24536;45.488;12.238;2022-12-26T14:06:40;13.30;92.70
38788;DHT22;24536;45.488;12.238;2022-12-26T14:09:19;13.30;92.70
38788;DHT22;24536;45.488;12.238;2022-12-26T14:17:30;13.30;92.80
38788;DHT22;24536;45.488;12.238;2022-12-26T14:23:02;13.30;92.90
38788;DHT22;24536;45.488;12.238;2022-12-26T14:31:29;13.30;93.00
38788;DHT22;24536;45.488;12.238;2022-12-26T14:42:16;13.20;92.90
38788;DHT22;24536;45.488;12.238;2022-12-26T14:45:02;13.20;93.00
38788;DHT22;24536;45.488;12.238;2022-12-26T14:47:46;13.20;92.90
38788;DHT22;24536;45.488;12.238;2022-12-26T14:53:48;13.10;92.90
38788;DHT22;24536;45.488;12.238;2022-12-26T14:58:44;13.00;93.00
38788;DHT22;24536;45.488;12.238;2022-12-26T15:09:45;13.00;92.80
38788;DHT22;24536;45.488;12.238;2022-12-26T15:18:36;13.00;92.90
38788;DHT22;24536;45.488;12.238;2022-12-26T15:40:24;12.80;93.00
38788;DHT22;24536;45.488;12.238;2022-12-26T15:48:42;12.80;93.10
38788;DHT22;24536;45.488;12.238;2022-12-26T15:51:13;12.70;93.10
38788;DHT22;24536;45.488;12.238;2022-12-26T16:05:10;12.80;93.30
38788;DHT22;24536;45.488;12.238;2022-12-26T16:08:07;12.80;93.30
38788;DHT22;24536;45.488;12.238;2022-12-26T16:10:36;12.80;93.30
38788;DHT22;24536;45.488;12.238;2022-12-26T16:15:48;12.90;93.40
38788;DHT22;24536;45.488;12.238;2022-12-26T16:18:18;12.90;93.20
38788;DHT22;24536;45.488;12.238;2022-12-26T16:20:45;12.90;93.30
38788;DHT22;24536;45.488;12.238;2022-12-26T16:23:33;12.90;93.20
38788;DHT22;24536;45.488;12.238;2022-12-26T16:25:59;12.90;93.10
38788;DHT22;24536;45.488;12.238;2022-12-26T16:28:35;12.90;93.10
38788;DHT22;24536;45.488;12.238;2022-12-26T16:31:02;12.90;93.00
38788;DHT22;24536;45.488;12.238;2022-12-26T16:33:31;12.90;92.90
38788;DHT22;24536;45.488;12.238;2022-12-26T16:35:58;12.90;92.90
38788;DHT22;24536;45.488;12.238;2022-12-26T16:38:29;12.90;92.90
38788;DHT22;24536;45.488;12.238;2022-12-26T16:40:55;12.90;92.90
38788;DHT22;24536;45.488;12.238;2022-12-26T16:43:28;12.90;92.80
38788;DHT22;24536;45.488;12.238;2022-12-26T16:46:00;12.80;92.80
38788;DHT22;24536;45.488;12.238;2022-12-26T16:48:30;12.80;92.80
38788;DHT22;24536;45.488;12.238;2022-12-26T16:50:59;12.90;92.80
38788;DHT22;24536;45.488;12.238;2022-12-26T16:56:26;12.80;92.90
38788;DHT22;24536;45.488;12.238;2022-12-26T16:59:18;12.80;92.90
38788;DHT22;24536;45.488;12.238;2022-12-26T17:01:49;12.80;92.90
38788;DHT22;24536;45.488;12.238;2022-12-26T17:04:29;12.80;92.90
38788;DHT22;24536;45.488;12.238;2022-12-26T17:07:07;12.80;92.70
38788;DHT22;24536;45.488;12.238;2022-12-26T17:09:46;12.80;92.90
38788;DHT22;24536;45.488;12.238;2022-12-26T17:12:27;12.80;92.90
38788;DHT22;24536;45.488;12.238;2022-12-26T17:14:56;12.80;92.90
38788;DHT22;24536;45.488;12.238;2022-12-26T17:19:51;12.70;92.90
38788;DHT22;24536;45.488;12.238;2022-12-26T17:22:40;12.70;92.90
38788;DHT22;24536;45.488;12.238;2022-12-26T17:30:46;12.70;93.00
38788;DHT22;24536;45.488;12.238;2022-12-26T17:33:24;12.70;93.00
38788;DHT22;24536;45.488;12.238;2022-12-26T17:36:11;12.60;93.00
38788;DHT22;24536;45.488;12.238;2022-12-26T17:38:38;12.70;93.00
38788;DHT22;24536;45.488;12.238;2022-12-26T17:41:05;12.70;93.10
38788;DHT22;24536;45.488;12.238;2022-12-26T17:43:35;12.60;93.10
38788;DHT22;24536;45.488;12.238;2022-12-26T17:46:03;12.60;93.10
38788;DHT22;24536;45.488;12.238;2022-12-26T17:48:30;12.60;93.00
38788;DHT22;24536;45.488;12.238;2022-12-26T17:51:03;12.70;93.10
38788;DHT22;24536;45.488;12.238;2022-12-26T17:53:46;12.60;93.00
38788;DHT22;24536;45.488;12.238;2022-12-26T17:56:18;12.70;93.10
38788;DHT22;24536;45.488;12.238;2022-12-26T17:58:46;12.60;93.00
38788;DHT22;24536;45.488;12.238;2022-12-26T18:01:12;12.70;93.10
38788;DHT22;24536;45.488;12.238;2022-12-26T18:03:38;12.70;93.00
38788;DHT22;24536;45.488;12.238;2022-12-26T18:06:04;12.70;93.00
38788;DHT22;24536;45.488;12.238;2022-12-26T18:08:37;12.60;93.10
38788;DHT22;24536;45.488;12.238;2022-12-26T18:11:06;12.70;93.10
38788;DHT22;24536;45.488;12.238;2022-12-26T18:13:33;12.70;93.00
38788;DHT22;24536;45.488;12.238;2022-12-26T18:16:00;12.60;93.00
38788;DHT22;24536;45.488;12.238;2022-12-26T18:18:40;12.70;93.00
38788;DHT22;24536;45.488;12.238;2022-12-26T18:21:10;12.60;93.00
38788;DHT22;24536;45.488;12.238;2022-12-26T18:23:36;12.60;93.00
38788;DHT22;24536;45.488;12.238;2022-12-26T18:26:13;12.60;93.00
38788;DHT22;24536;45.488;12.238;2022-12-26T18:28:42;12.70;93.10
38788;DHT22;24536;45.488;12.238;2022-12-26T18:31:12;12.60;93.10
38788;DHT22;24536;45.488;12.238;2022-12-26T18:33:38;12.60;93.10
38788;DHT22;24536;45.488;12.238;2022-12-26T18:36:04;12.60;93.10
38788;DHT22;24536;45.488;12.238;2022-12-26T18:38:36;12.60;93.10
38788;DHT22;24536;45.488;12.238;2022-12-26T18:41:05;12.60;93.10
38788;DHT22;24536;45.488;12.238;2022-12-26T18:43:31;12.70;93.10
38788;DHT22;24536;45.488;12.238;2022-12-26T18:45:57;12.60;93.10
38788;DHT22;24536;45.488;12.238;2022-12-26T18:48:23;12.60;93.10
38788;DHT22;24536;45.488;12.238;2022-12-26T18:50:49;12.60;93.10
38788;DHT22;24536;45.488;12.238;2022-12-26T18:53:15;12.60;93.10
38788;DHT22;24536;45.488;12.238;2022-12-26T18:55:41;12.60;93.10
38788;DHT22;24536;45.488;12.238;2022-12-26T18:58:06;12.60;93.10
38788;DHT22;24536;45.488;12.238;2022-12-26T19:00:32;12.60;93.10
38788;DHT22;24536;45.488;12.238;2022-12-26T19:02:58;12.60;93.10
38788;DHT22;24536;45.488;12.238;2022-12-26T19:05:32;12.60;93.10
38788;DHT22;24536;45.488;12.238;2022-12-26T19:07:59;12.60;93.10
38788;DHT22;24536;45.488;12.238;2022-12-26T19:10:29;12.60;93.20
38788;DHT22;24536;45.488;12.238;2022-12-26T19:12:55;12.60;93.20
38788;DHT22;24536;45.488;12.238;2022-12-26T19:15:22;12.60;93.20
38788;DHT22;24536;45.488;12.238;2022-12-26T19:17:47;12.50;93.20
38788;DHT22;24536;45.488;12.238;2022-12-26T19:20:31;12.50;93.20
38788;DHT22;24536;45.488;12.238;2022-12-26T19:22:57;12.50;93.20
38788;DHT22;24536;45.488;12.238;2022-12-26T19:25:24;12.50;93.20
38788;DHT22;24536;45.488;12.238;2022-12-26T19:28:09;12.50;93.50
38788;DHT22;24536;45.488;12.238;2022-12-26T19:30:48;12.60;93.90
38788;DHT22;24536;45.488;12.238;2022-12-26T19:33:19;12.70;93.90
38788;DHT22;24536;45.488;12.238;2022-12-26T19:35:45;12.70;93.60
38788;DHT22;24536;45.488;12.238;2022-12-26T19:38:18;12.60;93.40
38788;DHT22;24536;45.488;12.238;2022-12-26T19:40:44;12.60;93.30
38788;DHT22;24536;45.488;12.238;2022-12-26T19:43:10;12.60;93.30
38788;DHT22;24536;45.488;12.238;2022-12-26T19:45:35;12.60;93.20
38788;DHT22;24536;45.488;12.238;2022-12-26T19:48:01;12.60;93.20